Terminal Aerodrome Forecast
Issued by NWS Wilmington, NC

Home | Current Version | Previous Version | Text Only | Print | Product List | Glossary On
Versions: 1 2 3 4 5 6 7 8 9 10 11 12
000
FTUS42 KILM 290500
TAFILM
TAF
KILM 290520Z 2906/3006 24004KT P6SM SKC
     FM291700 14008KT P6SM FEW060
     FM300100 12004KT P6SM FEW020=

USA.gov is the U.S. government's official web portal to all federal, state and local government web resources and services.